createdAt,value
2018-12-13T00:01:00.185Z,5.40
2018-12-13T00:03:28.490Z,5.20
2018-12-13T00:05:56.780Z,4.80
2018-12-13T00:08:25.187Z,4.80
2018-12-13T00:10:53.452Z,4.80
2018-12-13T00:13:21.723Z,5.00
2018-12-13T00:15:50.044Z,5.30
2018-12-13T00:18:18.310Z,4.73
2018-12-13T00:20:46.590Z,4.70
2018-12-13T00:23:14.874Z,4.80
2018-12-13T00:25:43.163Z,5.17
2018-12-13T00:28:11.442Z,4.70
2018-12-13T00:30:39.726Z,4.67
2018-12-13T00:33:08.015Z,4.93
2018-12-13T00:35:36.322Z,4.43
2018-12-13T00:38:04.616Z,4.97
2018-12-13T00:40:32.886Z,4.67
2018-12-13T00:43:01.172Z,4.60
2018-12-13T00:45:29.486Z,4.30
2018-12-13T00:47:57.766Z,4.50
2018-12-13T00:50:26.088Z,4.90
2018-12-13T00:52:54.362Z,4.27
2018-12-13T00:55:22.704Z,4.70
2018-12-13T00:57:50.996Z,4.40
2018-12-13T01:00:19.273Z,3.63
2018-12-13T01:02:47.566Z,4.30
2018-12-13T01:05:15.847Z,4.37
2018-12-13T01:07:44.158Z,4.50
2018-12-13T01:10:12.434Z,3.80
2018-12-13T01:12:40.702Z,4.00
2018-12-13T01:15:08.993Z,4.07
2018-12-13T01:17:37.286Z,3.70
2018-12-13T01:20:05.946Z,4.40
2018-12-13T01:22:34.282Z,3.93
2018-12-13T01:25:02.598Z,4.00
2018-12-13T01:27:30.882Z,3.70
2018-12-13T01:29:59.141Z,3.90
2018-12-13T01:32:27.442Z,3.57
2018-12-13T01:34:55.732Z,4.00
2018-12-13T01:37:24.019Z,4.00
2018-12-13T01:39:52.299Z,3.87
2018-12-13T01:42:20.597Z,3.37
2018-12-13T01:44:48.887Z,3.50
2018-12-13T01:47:17.183Z,3.60
2018-12-13T01:49:45.455Z,3.70
2018-12-13T01:52:13.728Z,3.67
2018-12-13T01:54:42.005Z,3.80
2018-12-13T01:57:10.302Z,3.23
2018-12-13T01:59:38.597Z,3.53
2018-12-13T02:02:06.896Z,3.70
2018-12-13T02:04:35.208Z,3.30
2018-12-13T02:07:03.493Z,3.67
2018-12-13T02:09:31.772Z,3.73
2018-12-13T02:12:00.210Z,3.07
2018-12-13T02:14:28.565Z,3.57
2018-12-13T02:16:56.871Z,3.60
2018-12-13T02:19:25.237Z,3.23
2018-12-13T02:21:53.497Z,3.17
2018-12-13T02:24:21.785Z,3.57
2018-12-13T02:26:50.068Z,3.17
2018-12-13T02:29:18.363Z,3.47
2018-12-13T02:31:46.690Z,3.50
2018-12-13T02:34:14.974Z,3.00
2018-12-13T02:36:43.270Z,3.40
2018-12-13T02:39:11.550Z,3.00
2018-12-13T02:41:39.848Z,3.00
2018-12-13T02:44:08.123Z,3.00
2018-12-13T02:46:36.393Z,3.83
2018-12-13T02:49:08.530Z,3.23
2018-12-13T02:51:36.858Z,3.10
2018-12-13T02:54:05.135Z,2.80
2018-12-13T02:56:33.439Z,3.10
2018-12-13T02:59:01.760Z,3.10
2018-12-13T03:01:30.052Z,3.20
2018-12-13T03:03:58.401Z,3.00
2018-12-13T03:06:26.775Z,2.50
2018-12-13T03:08:55.069Z,2.77
2018-12-13T03:11:23.360Z,2.57
2018-12-13T03:13:51.640Z,2.70
2018-12-13T03:16:19.918Z,2.90
2018-12-13T03:18:48.199Z,2.70
2018-12-13T03:21:16.495Z,2.97
2018-12-13T03:23:44.789Z,2.50
2018-12-13T03:26:13.086Z,2.63
2018-12-13T03:28:41.431Z,3.00
2018-12-13T03:31:09.699Z,2.97
2018-12-13T03:33:37.979Z,2.63
2018-12-13T03:36:06.239Z,2.63
2018-12-13T03:38:34.518Z,2.77
2018-12-13T03:41:02.811Z,2.80
2018-12-13T03:43:31.142Z,2.70
2018-12-13T03:45:59.409Z,2.70
2018-12-13T03:48:27.687Z,2.70
2018-12-13T03:50:55.965Z,2.37
2018-12-13T03:53:24.225Z,2.70
2018-12-13T03:55:52.539Z,2.80
2018-12-13T03:58:20.841Z,2.40
2018-12-13T04:00:49.139Z,2.53
2018-12-13T04:03:17.401Z,2.60
2018-12-13T04:05:45.677Z,2.70
2018-12-13T04:08:13.953Z,3.10
2018-12-13T04:10:42.348Z,2.40
2018-12-13T04:13:10.612Z,2.37
2018-12-13T04:15:38.894Z,2.53
2018-12-13T04:18:07.201Z,2.47
2018-12-13T04:20:35.490Z,2.20
2018-12-13T04:23:03.858Z,2.77
2018-12-13T04:25:32.131Z,2.67
2018-12-13T04:28:00.410Z,2.60
2018-12-13T04:30:28.789Z,2.23
2018-12-13T04:32:57.076Z,2.57
2018-12-13T04:35:25.376Z,2.20
2018-12-13T04:37:53.637Z,2.30
2018-12-13T04:40:21.908Z,2.33
2018-12-13T04:42:50.177Z,2.30
2018-12-13T04:45:18.483Z,2.50
2018-12-13T04:47:46.762Z,2.60
2018-12-13T04:50:15.148Z,2.27
2018-12-13T04:52:43.467Z,2.43
2018-12-13T04:55:11.820Z,2.57
2018-12-13T04:57:40.223Z,2.20
2018-12-13T05:00:08.529Z,2.50
2018-12-13T05:02:36.823Z,2.30
2018-12-13T05:05:05.311Z,2.20
2018-12-13T05:07:33.615Z,2.40
2018-12-13T05:10:01.935Z,2.27
2018-12-13T05:12:30.325Z,2.37
2018-12-13T05:14:58.627Z,2.33
2018-12-13T05:17:26.895Z,2.13
2018-12-13T05:19:55.185Z,2.30
2018-12-13T05:22:23.596Z,2.10
2018-12-13T05:24:51.904Z,2.30
2018-12-13T05:27:20.212Z,2.10
2018-12-13T05:29:48.601Z,2.10
2018-12-13T05:32:16.881Z,2.20
2018-12-13T05:34:45.174Z,2.50
2018-12-13T05:37:13.451Z,2.33
2018-12-13T05:39:41.732Z,2.07
2018-12-13T05:42:10.036Z,2.10
2018-12-13T05:44:38.339Z,2.20
2018-12-13T05:47:06.609Z,2.00
2018-12-13T05:49:34.889Z,1.90
2018-12-13T05:52:03.155Z,2.00
2018-12-13T05:54:31.445Z,1.97
2018-12-13T05:56:59.749Z,1.93
2018-12-13T05:59:28.034Z,2.00
2018-12-13T06:01:56.446Z,1.90
2018-12-13T06:04:24.731Z,2.37
2018-12-13T06:06:53.047Z,2.27
2018-12-13T06:09:21.327Z,2.17
2018-12-13T06:11:49.593Z,2.23
2018-12-13T06:14:17.892Z,1.90
2018-12-13T06:16:46.199Z,2.00
2018-12-13T06:19:14.513Z,2.30
2018-12-13T06:21:42.795Z,2.03
2018-12-13T06:24:11.079Z,2.00
2018-12-13T06:26:39.362Z,2.00
2018-12-13T06:29:07.636Z,2.17
2018-12-13T06:31:35.928Z,2.30
2018-12-13T06:34:04.208Z,2.10
2018-12-13T06:36:32.510Z,2.17
2018-12-13T06:39:00.804Z,1.90
2018-12-13T06:41:29.120Z,1.90
2018-12-13T06:43:57.394Z,2.30
2018-12-13T06:46:25.697Z,2.20
2018-12-13T06:48:54.374Z,2.20
2018-12-13T06:51:22.782Z,2.00
2018-12-13T06:53:51.076Z,2.00
2018-12-13T06:56:19.448Z,1.93
2018-12-13T06:58:47.794Z,2.17
2018-12-13T07:01:16.166Z,2.30
2018-12-13T07:03:44.464Z,2.20
2018-12-13T07:06:13.286Z,2.37
2018-12-13T07:08:41.705Z,2.23
2018-12-13T07:11:10.000Z,2.20
2018-12-13T07:13:38.320Z,2.20
2018-12-13T07:16:06.614Z,2.33
2018-12-13T07:18:34.914Z,2.13
2018-12-13T07:21:03.205Z,2.03
2018-12-13T07:23:31.514Z,2.20
2018-12-13T07:25:59.800Z,2.20
2018-12-13T07:28:29.049Z,2.20
2018-12-13T07:30:57.518Z,1.80
2018-12-13T07:33:25.804Z,2.00
2018-12-13T07:35:54.106Z,1.90
2018-12-13T07:38:22.413Z,2.10
2018-12-13T07:40:50.710Z,1.83
2018-12-13T07:43:19.002Z,2.10
2018-12-13T07:45:47.273Z,2.10
2018-12-13T07:48:15.532Z,2.10
2018-12-13T07:50:43.802Z,2.00
2018-12-13T07:53:12.130Z,1.97
2018-12-13T07:55:40.432Z,2.17
2018-12-13T07:58:08.810Z,2.40
2018-12-13T08:00:37.124Z,2.40
2018-12-13T08:03:05.414Z,2.43
2018-12-13T08:05:33.694Z,2.60
2018-12-13T08:08:01.960Z,2.70
2018-12-13T08:10:30.250Z,2.27
2018-12-13T08:12:58.557Z,2.37
2018-12-13T08:15:26.816Z,2.27
2018-12-13T08:17:55.120Z,2.37
2018-12-13T08:20:23.398Z,2.40
2018-12-13T08:22:51.680Z,2.43
2018-12-13T08:25:20.450Z,2.60
2018-12-13T08:27:48.828Z,2.40
2018-12-13T08:30:17.110Z,2.80
2018-12-13T08:32:45.440Z,2.63
2018-12-13T08:35:14.658Z,2.90
2018-12-13T08:37:44.732Z,3.70
2018-12-13T08:40:13.092Z,3.43
2018-12-13T08:42:41.494Z,4.13
2018-12-13T08:45:09.799Z,4.43
2018-12-13T08:47:38.070Z,5.20
2018-12-13T08:50:06.383Z,5.20
2018-12-13T08:52:34.650Z,5.73
2018-12-13T08:55:02.949Z,6.57
2018-12-13T08:57:31.237Z,6.50
2018-12-13T08:59:59.515Z,7.33
2018-12-13T09:02:27.867Z,7.67
2018-12-13T09:04:56.260Z,7.07
2018-12-13T09:07:24.547Z,8.67
2018-12-13T09:09:52.851Z,8.57
2018-12-13T09:12:21.157Z,7.87
2018-12-13T09:14:49.517Z,9.20
2018-12-13T09:17:17.821Z,8.87
2018-12-13T09:19:46.120Z,8.87
2018-12-13T09:22:14.413Z,8.77
2018-12-13T09:24:42.695Z,9.43
2018-12-13T09:27:11.031Z,10.03
2018-12-13T09:29:39.329Z,10.20
2018-12-13T09:32:07.631Z,9.80
2018-12-13T09:34:35.925Z,9.50
2018-12-13T09:37:04.249Z,8.27
2018-12-13T09:39:32.586Z,8.90
2018-12-13T09:42:00.871Z,8.90
2018-12-13T09:44:29.180Z,9.10
2018-12-13T09:46:57.487Z,8.50
2018-12-13T09:49:25.791Z,8.87
2018-12-13T09:51:54.056Z,8.30
2018-12-13T09:54:22.368Z,9.10
2018-12-13T09:56:50.654Z,8.00
2018-12-13T09:59:18.933Z,8.50
2018-12-13T10:01:47.226Z,8.33
2018-12-13T10:04:15.539Z,8.13
2018-12-13T10:06:43.878Z,7.80
2018-12-13T10:09:12.217Z,7.93
2018-12-13T10:11:40.515Z,7.90
2018-12-13T10:14:08.895Z,8.43
2018-12-13T10:16:37.201Z,7.80
2018-12-13T10:19:05.544Z,8.10
2018-12-13T10:21:33.833Z,8.10
2018-12-13T10:24:02.129Z,8.27
2018-12-13T10:26:30.407Z,8.07
2018-12-13T10:28:58.737Z,8.70
2018-12-13T10:31:27.111Z,7.60
2018-12-13T10:33:55.403Z,7.47
2018-12-13T10:36:23.687Z,8.27
2018-12-13T10:38:53.148Z,8.17
2018-12-13T10:41:21.775Z,8.07
2018-12-13T10:43:50.071Z,7.57
2018-12-13T10:46:18.368Z,7.73
2018-12-13T10:48:46.677Z,7.63
2018-12-13T10:51:14.972Z,7.50
2018-12-13T10:53:43.289Z,7.00
2018-12-13T10:56:11.566Z,7.70
2018-12-13T10:58:39.846Z,7.17
2018-12-13T11:01:48.843Z,7.53
2018-12-13T11:04:17.116Z,7.40
2018-12-13T11:06:45.440Z,7.67
2018-12-13T11:09:13.740Z,7.53
2018-12-13T11:11:42.062Z,6.73
2018-12-13T11:14:10.438Z,7.47
2018-12-13T11:16:38.766Z,7.47
2018-12-13T11:19:07.064Z,6.43
2018-12-13T11:21:35.386Z,7.30
2018-12-13T11:24:03.694Z,6.83
2018-12-13T11:26:32.036Z,7.23
2018-12-13T11:29:27.772Z,7.13
2018-12-13T11:31:56.084Z,6.10
2018-12-13T11:34:24.437Z,6.10
2018-12-13T11:36:52.745Z,6.10
2018-12-13T11:39:21.958Z,6.83
2018-12-13T11:41:50.256Z,6.03
2018-12-13T11:44:18.631Z,6.07
2018-12-13T11:46:47.080Z,6.27
2018-12-13T11:49:15.508Z,6.03
2018-12-13T11:51:43.778Z,6.10
2018-12-13T11:54:23.119Z,5.53
2018-12-13T11:56:51.395Z,5.40
2018-12-13T11:59:19.676Z,5.67
2018-12-13T12:01:47.975Z,6.10
2018-12-13T12:04:22.243Z,5.67
2018-12-13T12:06:50.584Z,6.10
2018-12-13T12:09:18.896Z,5.37
2018-12-13T12:11:47.258Z,5.20
2018-12-13T12:14:15.544Z,5.60
2018-12-13T12:16:43.855Z,5.47
2018-12-13T12:19:12.143Z,5.70
2018-12-13T12:21:40.410Z,4.93
2018-12-13T12:24:08.704Z,5.67
2018-12-13T12:26:37.006Z,5.87
2018-12-13T12:29:05.286Z,5.23
2018-12-13T12:31:33.771Z,5.00
2018-12-13T12:34:02.083Z,5.40
2018-12-13T12:36:30.384Z,4.60
2018-12-13T12:38:58.757Z,5.20
2018-12-13T12:41:27.061Z,5.03
2018-12-13T12:43:55.391Z,5.30
2018-12-13T12:46:23.665Z,4.67
2018-12-13T12:48:51.997Z,4.87
2018-12-13T12:51:20.274Z,4.63
2018-12-13T12:53:48.583Z,4.97
2018-12-13T12:56:16.927Z,4.83
2018-12-13T12:58:45.215Z,4.63
2018-12-13T13:01:13.525Z,4.47
2018-12-13T13:03:41.899Z,4.60
2018-12-13T13:06:10.249Z,4.60
2018-12-13T13:08:38.589Z,5.23
2018-12-13T13:11:06.895Z,4.63
2018-12-13T13:13:35.313Z,5.20
2018-12-13T13:16:03.640Z,4.50
2018-12-13T13:18:31.931Z,5.00
2018-12-13T13:21:00.243Z,4.60
2018-12-13T13:23:28.546Z,5.00
2018-12-13T13:25:56.863Z,4.80
2018-12-13T13:28:25.207Z,5.00
2018-12-13T13:30:53.505Z,4.40
2018-12-13T13:33:21.785Z,4.67
2018-12-13T13:35:50.131Z,4.43
2018-12-13T13:38:18.426Z,4.60
2018-12-13T13:40:46.737Z,4.40
2018-12-13T13:43:15.038Z,4.63
2018-12-13T13:45:43.352Z,4.27
2018-12-13T13:48:11.661Z,4.33
2018-12-13T13:50:39.962Z,4.30
2018-12-13T13:53:08.262Z,5.00
2018-12-13T13:55:36.560Z,5.17
2018-12-13T13:58:04.867Z,5.30
2018-12-13T14:00:33.155Z,4.80
2018-12-13T14:03:01.455Z,4.50
2018-12-13T14:05:29.766Z,4.50
2018-12-13T14:07:58.043Z,4.97
2018-12-13T14:10:26.361Z,4.57
2018-12-13T14:12:55.924Z,4.63
2018-12-13T14:15:24.424Z,4.33
2018-12-13T14:17:52.706Z,4.67
2018-12-13T14:20:20.988Z,4.43
2018-12-13T14:22:49.518Z,5.00
2018-12-13T14:25:17.878Z,4.23
2018-12-13T14:27:46.269Z,4.10
2018-12-13T14:30:14.564Z,4.70
2018-12-13T14:32:42.868Z,5.60
2018-12-13T14:35:11.170Z,5.30
2018-12-13T14:37:39.516Z,5.53
2018-12-13T14:40:07.827Z,5.27
2018-12-13T14:42:36.145Z,5.47
2018-12-13T14:45:05.137Z,5.53
2018-12-13T14:47:33.472Z,5.77
2018-12-13T14:50:01.777Z,5.67
2018-12-13T14:52:30.119Z,5.50
2018-12-13T14:54:58.444Z,5.50
2018-12-13T14:57:26.824Z,5.40
2018-12-13T14:59:55.135Z,5.53
2018-12-13T15:02:23.425Z,5.47
2018-12-13T15:04:53.197Z,5.27
2018-12-13T15:07:21.622Z,5.20
2018-12-13T15:09:51.083Z,5.37
2018-12-13T15:12:19.636Z,5.40
2018-12-13T15:14:47.988Z,4.80
2018-12-13T15:17:16.289Z,4.83
2018-12-13T15:19:44.605Z,4.97
2018-12-13T15:22:12.899Z,5.20
2018-12-13T15:24:41.260Z,4.63
2018-12-13T15:27:09.556Z,4.90
2018-12-13T15:29:37.847Z,4.90
2018-12-13T15:32:05.882Z,5.27
2018-12-13T15:34:34.164Z,5.17
2018-12-13T15:37:02.479Z,5.10
2018-12-13T15:39:30.784Z,5.37
2018-12-13T15:41:59.080Z,6.30
2018-12-13T15:44:27.504Z,5.40
2018-12-13T15:46:55.809Z,5.90
2018-12-13T15:49:24.421Z,5.90
2018-12-13T15:51:52.697Z,5.70
2018-12-13T15:54:20.989Z,5.87
2018-12-13T15:56:49.306Z,6.10
2018-12-13T15:59:17.707Z,6.30
2018-12-13T16:01:46.053Z,6.37
2018-12-13T16:04:14.345Z,6.90
2018-12-13T16:06:42.691Z,6.40
2018-12-13T16:09:11.003Z,6.53
2018-12-13T16:11:39.303Z,6.27
2018-12-13T16:14:07.615Z,6.20
2018-12-13T16:16:35.947Z,6.53
2018-12-13T16:19:04.269Z,6.03
2018-12-13T16:21:32.619Z,5.80
2018-12-13T16:24:00.917Z,5.97
2018-12-13T16:26:29.238Z,5.77
2018-12-13T16:28:57.531Z,5.80
2018-12-13T16:31:25.841Z,5.60
2018-12-13T16:33:54.274Z,9.07
2018-12-13T16:36:22.632Z,8.67
2018-12-13T16:38:50.958Z,8.30
2018-12-13T16:41:19.300Z,7.13
2018-12-13T16:43:47.653Z,6.63
2018-12-13T16:46:15.977Z,6.40
2018-12-13T16:48:45.061Z,6.27
2018-12-13T16:51:13.603Z,6.10
2018-12-13T16:53:41.923Z,6.17
2018-12-13T16:56:10.223Z,6.00
2018-12-13T16:58:38.568Z,5.73
2018-12-13T17:01:06.879Z,6.13
2018-12-13T17:03:39.888Z,5.67
2018-12-13T17:06:08.251Z,4.90
2018-12-13T17:08:36.607Z,4.77
2018-12-13T17:11:04.951Z,5.37
2018-12-13T17:13:33.270Z,5.30
2018-12-13T17:16:01.591Z,5.30
2018-12-13T17:18:36.481Z,5.77
2018-12-13T17:21:04.795Z,4.70
2018-12-13T17:23:33.102Z,4.90
2018-12-13T17:26:01.426Z,4.70
2018-12-13T17:28:30.485Z,4.47
2018-12-13T17:30:58.801Z,4.87
2018-12-13T17:33:27.142Z,4.77
2018-12-13T17:35:55.501Z,4.80
2018-12-13T17:38:23.812Z,4.60
2018-12-13T17:40:52.151Z,4.47
2018-12-13T17:43:20.445Z,4.80
2018-12-13T17:45:48.752Z,4.33
2018-12-13T17:48:17.080Z,4.30
2018-12-13T17:50:45.379Z,4.40
2018-12-13T17:53:13.696Z,3.97
2018-12-13T17:55:41.997Z,4.40
2018-12-13T17:58:10.292Z,4.53
2018-12-13T18:00:38.627Z,4.47
2018-12-13T18:03:07.011Z,3.90
2018-12-13T18:05:35.337Z,4.03
2018-12-13T18:08:03.697Z,4.13
2018-12-13T18:10:32.045Z,4.20
2018-12-13T18:13:00.409Z,3.97
2018-12-13T18:15:28.798Z,4.30
2018-12-13T18:17:57.160Z,4.20
2018-12-13T18:20:25.536Z,3.90
2018-12-13T18:22:54.761Z,4.17
2018-12-13T18:25:23.103Z,4.23
2018-12-13T18:27:51.469Z,3.93
2018-12-13T18:30:19.844Z,4.17
2018-12-13T18:32:48.209Z,4.07
2018-12-13T18:35:16.545Z,3.67
2018-12-13T18:37:44.873Z,4.00
2018-12-13T18:40:13.205Z,3.87
2018-12-13T18:42:41.554Z,3.73
2018-12-13T18:45:10.864Z,3.97
2018-12-13T18:47:39.274Z,3.87
2018-12-13T18:50:08.123Z,3.80
2018-12-13T18:52:36.558Z,3.60
2018-12-13T18:55:04.980Z,3.53
2018-12-13T18:57:33.341Z,3.77
2018-12-13T19:00:01.849Z,3.67
2018-12-13T19:02:30.919Z,4.00
2018-12-13T19:04:59.326Z,3.70
2018-12-13T19:07:27.776Z,4.07
2018-12-13T19:09:57.283Z,3.73
2018-12-13T19:12:25.694Z,3.60
2018-12-13T19:14:54.107Z,3.53
2018-12-13T19:17:22.587Z,3.70
2018-12-13T19:19:51.105Z,3.57
2018-12-13T19:22:20.569Z,3.37
2018-12-13T19:24:48.973Z,3.47
2018-12-13T19:27:18.256Z,3.50
2018-12-13T19:29:46.667Z,3.50
2018-12-13T19:32:15.725Z,3.13
2018-12-13T19:34:44.183Z,3.60
2018-12-13T19:37:12.961Z,4.03
2018-12-13T19:39:41.473Z,4.00
2018-12-13T19:42:09.940Z,3.63
2018-12-13T19:44:39.025Z,3.87
2018-12-13T19:47:07.468Z,3.40
2018-12-13T19:49:35.879Z,3.47
2018-12-13T19:52:04.364Z,3.57
2018-12-13T19:54:32.793Z,3.77
2018-12-13T19:57:01.502Z,3.30
2018-12-13T19:59:29.942Z,3.47
2018-12-13T20:01:59.049Z,3.33
2018-12-13T20:04:27.478Z,3.30
2018-12-13T20:06:55.939Z,3.50
2018-12-13T20:09:24.619Z,3.20
2018-12-13T20:11:53.575Z,3.27
2018-12-13T20:14:22.009Z,3.00
2018-12-13T20:16:50.437Z,3.37
2018-12-13T20:19:18.897Z,3.20
2018-12-13T20:21:47.388Z,3.43
2018-12-13T20:24:15.835Z,3.30
2018-12-13T20:26:44.364Z,3.63
2018-12-13T20:29:12.828Z,3.10
2018-12-13T20:31:41.268Z,3.67
2018-12-13T20:34:10.365Z,3.83
2018-12-13T20:36:38.794Z,3.03
2018-12-13T20:39:09.886Z,2.90
2018-12-13T20:41:40.084Z,3.10
2018-12-13T20:44:09.517Z,3.20
2018-12-13T20:46:38.305Z,3.37
2018-12-13T20:49:07.149Z,3.47
2018-12-13T20:51:37.140Z,3.50
2018-12-13T20:54:05.584Z,3.30
2018-12-13T20:56:34.013Z,3.27
2018-12-13T20:59:03.509Z,3.23
2018-12-13T21:01:32.823Z,3.40
2018-12-13T21:04:01.310Z,3.20
2018-12-13T21:06:30.452Z,3.40
2018-12-13T21:08:58.882Z,3.40
2018-12-13T21:11:27.307Z,3.47
2018-12-13T21:13:55.963Z,3.50
2018-12-13T21:16:24.512Z,3.10
2018-12-13T21:18:54.052Z,3.30
2018-12-13T21:21:22.541Z,2.87
2018-12-13T21:23:51.235Z,3.37
2018-12-13T21:26:19.695Z,2.63
2018-12-13T21:28:48.179Z,2.70
2018-12-13T21:31:16.603Z,3.27
2018-12-13T21:33:45.026Z,3.13
2018-12-13T21:36:13.525Z,3.40
2018-12-13T21:38:44.200Z,3.23
2018-12-13T21:41:13.703Z,3.30
2018-12-13T21:43:42.319Z,3.03
2018-12-13T21:46:10.801Z,3.40
2018-12-13T21:48:39.436Z,3.10
2018-12-13T21:51:07.901Z,3.30
2018-12-13T21:53:36.303Z,2.90
2018-12-13T21:56:04.745Z,3.30
2018-12-13T21:58:33.283Z,3.30
2018-12-13T22:01:01.668Z,3.43
2018-12-13T22:03:31.079Z,3.37
2018-12-13T22:05:59.486Z,3.50
2018-12-13T22:08:27.834Z,3.13
2018-12-13T22:10:56.515Z,3.37
2018-12-13T22:13:24.881Z,2.90
2018-12-13T22:15:53.231Z,3.50
2018-12-13T22:18:21.661Z,3.57
2018-12-13T22:20:50.003Z,3.40
2018-12-13T22:23:18.319Z,3.20
2018-12-13T22:25:46.710Z,3.10
2018-12-13T22:28:15.175Z,3.40
2018-12-13T22:30:43.512Z,3.13
2018-12-13T22:33:11.865Z,3.60
2018-12-13T22:35:40.246Z,3.50
2018-12-13T22:38:08.547Z,3.20
2018-12-13T22:40:36.887Z,3.70
2018-12-13T22:43:05.219Z,3.50
2018-12-13T22:45:33.523Z,3.47
2018-12-13T22:48:01.849Z,3.33
2018-12-13T22:50:30.127Z,3.50
2018-12-13T22:52:58.457Z,3.23
2018-12-13T22:55:26.785Z,3.57
2018-12-13T22:57:55.147Z,3.17
2018-12-13T23:00:23.636Z,3.30
2018-12-13T23:02:51.983Z,3.27
2018-12-13T23:05:20.281Z,3.50
2018-12-13T23:07:48.619Z,3.20
2018-12-13T23:10:16.941Z,3.50
2018-12-13T23:12:45.295Z,3.40
2018-12-13T23:15:13.637Z,3.40
2018-12-13T23:17:41.983Z,3.43
2018-12-13T23:20:10.265Z,3.60
2018-12-13T23:22:38.575Z,3.63
2018-12-13T23:25:06.944Z,3.20
2018-12-13T23:27:35.219Z,3.77
2018-12-13T23:30:03.972Z,3.60
2018-12-13T23:32:32.283Z,3.50
2018-12-13T23:35:00.643Z,3.53
2018-12-13T23:37:28.967Z,3.40
2018-12-13T23:39:57.269Z,3.47
2018-12-13T23:42:25.555Z,3.60
2018-12-13T23:44:53.823Z,3.40
2018-12-13T23:47:22.107Z,3.60
2018-12-13T23:49:50.399Z,3.03
2018-12-13T23:52:18.711Z,3.43
2018-12-13T23:54:47.006Z,3.30
2018-12-13T23:57:15.342Z,3.50
2018-12-13T23:59:43.742Z,3.40
